Time;durP1;ratioP1;P1;durP2;ratioP2;P2;SDS_P1;SDS_P2;PMS_P1;PMS_P2;Temp;Humidity;BMP_temperature;BMP_pressure;BME280_temperature;BME280_humidity;BME280_pressure;Samples;Min_cycle;Max_cycle;Signal;HPM_P1;HPM_P2
2023/04/08 00:01:36;;;;;;;30.27;20.77;;;;;;;;;;4326362;32;319532;-79
2023/04/08 00:04:03;;;;;;;30.73;21.37;;;;;;;;;;4336765;32;319292;-80
2023/04/08 00:06:30;;;;;;;29.70;19.07;;;;;;;;;;4327787;32;318936;-79
2023/04/08 00:08:57;;;;;;;32.03;19.13;;;;;;;;;;4336168;32;319335;-78
2023/04/08 00:11:24;;;;;;;30.50;20.33;;;;;;;;;;4335777;32;319503;-80
2023/04/08 00:13:52;;;;;;;27.37;18.63;;;;;;;;;;4327056;32;319445;-79
2023/04/08 00:16:19;;;;;;;25.40;17.63;;;;;;;;;;4321332;32;324245;-78
2023/04/08 00:18:48;;;;;;;27.93;19.03;;;;;;;;;;4311293;32;329810;-80
2023/04/08 00:21:16;;;;;;;30.87;20.17;;;;;;;;;;4327637;32;318693;-78
2023/04/08 00:23:44;;;;;;;25.30;17.87;;;;;;;;;;4326941;32;319434;-78
2023/04/08 00:26:11;;;;;;;25.43;17.60;;;;;;;;;;4336094;32;319327;-81
2023/04/08 00:28:38;;;;;;;25.63;17.47;;;;;;;;;;4326079;32;319444;-79
2023/04/08 00:31:08;;;;;;;26.00;17.40;;;;;;;;;;4333760;32;349989;-79
2023/04/08 00:33:35;;;;;;;26.57;17.17;;;;;;;;;;4326638;32;319571;-80
2023/04/08 00:36:02;;;;;;;20.17;15.60;;;;;;;;;;4335557;32;319241;-79
2023/04/08 00:38:29;;;;;;;23.63;15.33;;;;;;;;;;4323332;32;358628;-80
2023/04/08 00:40:57;;;;;;;22.57;15.90;;;;;;;;;;4333356;32;319316;-81
2023/04/08 00:43:24;;;;;;;25.60;16.53;;;;;;;;;;4322693;32;319511;-79
2023/04/08 00:45:51;;;;;;;26.03;16.33;;;;;;;;;;4312533;32;319376;-78
2023/04/08 00:48:19;;;;;;;23.07;14.70;;;;;;;;;;4327847;32;319491;-80
2023/04/08 00:50:46;;;;;;;30.60;17.77;;;;;;;;;;4326169;32;319536;-81
2023/04/08 00:53:16;;;;;;;26.50;16.50;;;;;;;;;;4335425;32;319629;-81
2023/04/08 00:55:43;;;;;;;23.43;15.00;;;;;;;;;;4325547;32;318739;-79
2023/04/08 00:58:10;;;;;;;26.97;16.43;;;;;;;;;;4334627;32;355563;-79
2023/04/08 01:00:41;;;;;;;26.10;16.03;;;;;;;;;;4325723;32;319263;-79
2023/04/08 01:03:14;;;;;;;20.83;15.93;;;;;;;;;;4335780;32;319364;-78
2023/04/08 01:05:51;;;;;;;22.47;14.30;;;;;;;;;;4326900;32;319612;-78
2023/04/08 01:08:18;;;;;;;22.17;16.13;;;;;;;;;;4335333;32;318848;-79
2023/04/08 01:10:51;;;;;;;26.10;16.73;;;;;;;;;;4325240;32;318729;-77
2023/04/08 01:13:19;;;;;;;25.73;16.17;;;;;;;;;;4335150;32;318564;-78
2023/04/08 01:15:46;;;;;;;25.80;16.17;;;;;;;;;;4326962;32;319269;-79
2023/04/08 01:18:16;;;;;;;25.80;16.43;;;;;;;;;;4334520;32;318831;-78
2023/04/08 01:20:46;;;;;;;27.13;16.40;;;;;;;;;;4326647;32;319144;-78
2023/04/08 01:23:20;;;;;;;33.47;16.50;;;;;;;;;;4336031;32;319467;-78
2023/04/08 01:25:50;;;;;;;25.63;17.33;;;;;;;;;;4326246;32;319775;-79
2023/04/08 01:28:18;;;;;;;28.30;17.20;;;;;;;;;;4336246;32;318942;-79
2023/04/08 01:30:47;;;;;;;25.17;16.17;;;;;;;;;;4325223;32;319172;-78
2023/04/08 01:33:16;;;;;;;25.37;16.03;;;;;;;;;;4335603;32;318541;-79
2023/04/08 01:35:44;;;;;;;24.63;15.23;;;;;;;;;;4326290;32;319449;-80
2023/04/08 01:38:15;;;;;;;18.50;13.93;;;;;;;;;;4338086;32;320036;-80
2023/04/08 01:40:43;;;;;;;21.37;13.70;;;;;;;;;;4326791;32;319589;-79
2023/04/08 01:43:14;;;;;;;20.17;12.90;;;;;;;;;;4335964;32;318925;-79
2023/04/08 01:45:42;;;;;;;19.00;11.63;;;;;;;;;;4324597;32;330540;-79
2023/04/08 01:48:10;;;;;;;21.20;13.60;;;;;;;;;;4330279;32;319502;-79
2023/04/08 01:50:37;;;;;;;22.97;13.53;;;;;;;;;;4311611;32;319371;-79
2023/04/08 01:53:05;;;;;;;20.70;12.17;;;;;;;;;;4320145;32;346057;-80
2023/04/08 01:55:33;;;;;;;19.40;13.67;;;;;;;;;;4308274;32;339345;-79
2023/04/08 01:58:01;;;;;;;17.23;12.63;;;;;;;;;;4320895;32;319295;-80
2023/04/08 02:00:30;;;;;;;21.23;13.53;;;;;;;;;;4310578;32;352430;-79
2023/04/08 02:02:58;;;;;;;19.97;14.27;;;;;;;;;;4330365;32;319083;-78
2023/04/08 02:05:25;;;;;;;21.40;13.97;;;;;;;;;;4336508;32;319282;-79
2023/04/08 02:07:52;;;;;;;21.03;14.87;;;;;;;;;;4330449;32;323843;-79
2023/04/08 02:10:18;;;;;;;21.33;14.50;;;;;;;;;;4343491;32;318841;-79
2023/04/08 02:12:46;;;;;;;23.53;15.07;;;;;;;;;;4331912;32;318449;-78
2023/04/08 02:15:13;;;;;;;22.93;13.67;;;;;;;;;;4338538;32;318467;-78
2023/04/08 02:17:45;;;;;;;19.07;14.00;;;;;;;;;;4326259;32;319413;-78
2023/04/08 02:20:17;;;;;;;21.13;13.20;;;;;;;;;;4336040;32;319533;-79
2023/04/08 02:22:49;;;;;;;18.77;13.53;;;;;;;;;;4325321;32;319264;-79
2023/04/08 02:25:23;;;;;;;17.63;12.63;;;;;;;;;;4334494;32;319346;-78
2023/04/08 02:27:51;;;;;;;19.47;13.13;;;;;;;;;;4326537;32;318880;-79
2023/04/08 02:30:19;;;;;;;20.53;14.37;;;;;;;;;;4336728;32;319325;-79
2023/04/08 02:32:48;;;;;;;22.10;14.07;;;;;;;;;;4325724;32;320002;-79
2023/04/08 02:35:16;;;;;;;19.97;14.43;;;;;;;;;;4334773;32;319383;-77
2023/04/08 02:37:43;;;;;;;18.30;13.93;;;;;;;;;;4327185;32;319256;-78
2023/04/08 02:40:27;;;;;;;19.80;14.63;;;;;;;;;;4337612;32;319468;-80
2023/04/08 02:42:54;;;;;;;21.87;13.10;;;;;;;;;;4308452;32;419879;-80
2023/04/08 02:45:21;;;;;;;17.70;12.57;;;;;;;;;;4318657;32;339192;-78
2023/04/08 02:47:50;;;;;;;15.30;11.70;;;;;;;;;;4310373;32;319311;-80
2023/04/08 02:50:18;;;;;;;16.93;12.40;;;;;;;;;;4319378;32;318709;-78
2023/04/08 02:52:45;;;;;;;18.23;11.63;;;;;;;;;;4310906;32;319292;-78
2023/04/08 02:55:12;;;;;;;22.70;14.97;;;;;;;;;;4320000;32;318724;-79
2023/04/08 02:57:40;;;;;;;19.33;13.50;;;;;;;;;;4310902;32;319376;-79
2023/04/08 03:00:08;;;;;;;21.57;11.33;;;;;;;;;;4320639;32;319477;-78
2023/04/08 03:02:35;;;;;;;10.67;9.23;;;;;;;;;;4311602;32;319315;-79
2023/04/08 03:05:04;;;;;;;13.57;8.93;;;;;;;;;;4320714;32;318375;-79
2023/04/08 03:07:31;;;;;;;11.47;8.47;;;;;;;;;;4310956;32;317829;-78
2023/04/08 03:09:58;;;;;;;9.97;8.00;;;;;;;;;;4352695;32;318317;-80
2023/04/08 03:12:26;;;;;;;8.60;7.33;;;;;;;;;;4412808;32;316604;-78
2023/04/08 03:14:53;;;;;;;13.90;8.57;;;;;;;;;;4399910;32;417922;-80
2023/04/08 03:17:20;;;;;;;12.93;8.17;;;;;;;;;;4412635;32;317688;-80
2023/04/08 03:19:46;;;;;;;16.27;7.33;;;;;;;;;;4402355;32;318443;-79
2023/04/08 03:22:14;;;;;;;18.57;10.90;;;;;;;;;;4411691;32;318188;-81
2023/04/08 03:24:41;;;;;;;18.13;10.47;;;;;;;;;;4400953;32;319248;-79
2023/04/08 03:27:08;;;;;;;19.47;13.63;;;;;;;;;;4411088;32;319314;-79
2023/04/08 03:29:35;;;;;;;15.97;11.07;;;;;;;;;;4402920;32;319318;-80
2023/04/08 03:32:01;;;;;;;20.77;10.17;;;;;;;;;;4413125;32;318343;-80
2023/04/08 03:34:28;;;;;;;14.30;10.63;;;;;;;;;;4402707;32;319318;-80
2023/04/08 03:36:55;;;;;;;13.17;9.97;;;;;;;;;;4350220;32;318738;-79
2023/04/08 03:39:23;;;;;;;16.33;11.93;;;;;;;;;;4336367;32;318298;-80
2023/04/08 03:41:50;;;;;;;20.13;11.73;;;;;;;;;;4326881;32;319361;-80
2023/04/08 03:44:16;;;;;;;20.43;12.17;;;;;;;;;;4336165;32;319372;-79
2023/04/08 03:46:43;;;;;;;19.20;11.93;;;;;;;;;;4324550;32;319224;-79
2023/04/08 03:49:10;;;;;;;15.47;11.27;;;;;;;;;;4334120;32;319391;-78
2023/04/08 03:51:37;;;;;;;17.67;11.80;;;;;;;;;;4324070;32;319304;-80
2023/04/08 03:54:04;;;;;;;18.33;10.90;;;;;;;;;;4334988;32;319010;-80
2023/04/08 03:56:32;;;;;;;13.67;10.03;;;;;;;;;;4325149;32;318638;-79
2023/04/08 03:58:59;;;;;;;13.40;10.00;;;;;;;;;;4327744;32;319478;-80
2023/04/08 04:01:26;;;;;;;14.23;10.23;;;;;;;;;;4322416;32;319472;-80
2023/04/08 04:03:53;;;;;;;13.33;10.33;;;;;;;;;;4310092;32;398462;-79
2023/04/08 04:06:20;;;;;;;43.53;21.43;;;;;;;;;;4359766;32;319393;-77
2023/04/08 04:08:47;;;;;;;42.43;20.73;;;;;;;;;;4405217;32;319230;-80
2023/04/08 04:11:14;;;;;;;29.47;18.13;;;;;;;;;;4415103;32;319407;-79
2023/04/08 04:13:42;;;;;;;27.90;18.80;;;;;;;;;;4403980;32;318914;-78
2023/04/08 04:16:09;;;;;;;30.97;17.83;;;;;;;;;;4414345;32;345669;-79
2023/04/08 04:18:36;;;;;;;25.87;17.77;;;;;;;;;;4405065;32;318867;-80
2023/04/08 04:21:05;;;;;;;27.27;17.20;;;;;;;;;;4414554;32;319282;-80
2023/04/08 04:23:32;;;;;;;22.80;16.53;;;;;;;;;;4403483;32;319275;-79
2023/04/08 04:25:59;;;;;;;27.43;17.60;;;;;;;;;;4414473;32;318777;-80
2023/04/08 04:28:25;;;;;;;31.67;17.97;;;;;;;;;;4414682;32;319394;-80
2023/04/08 04:30:53;;;;;;;26.07;17.63;;;;;;;;;;4400534;32;418960;-80
2023/04/08 04:33:20;;;;;;;24.80;15.97;;;;;;;;;;4413812;32;319171;-80
2023/04/08 04:35:47;;;;;;;18.63;13.37;;;;;;;;;;4377238;32;318858;-80
2023/04/08 04:38:15;;;;;;;20.27;13.23;;;;;;;;;;4336905;32;318785;-79
2023/04/08 04:40:43;;;;;;;18.33;13.93;;;;;;;;;;4326037;32;319586;-81
2023/04/08 04:43:11;;;;;;;19.53;14.13;;;;;;;;;;4336729;32;319362;-80
2023/04/08 04:45:38;;;;;;;24.33;14.60;;;;;;;;;;4326350;32;319442;-80
2023/04/08 04:48:09;;;;;;;24.63;15.80;;;;;;;;;;4335871;32;318630;-79
2023/04/08 04:50:35;;;;;;;23.50;17.17;;;;;;;;;;4326738;32;318653;-79
2023/04/08 04:53:02;;;;;;;30.10;18.50;;;;;;;;;;4328609;32;319384;-80
2023/04/08 04:55:29;;;;;;;26.30;18.43;;;;;;;;;;4324071;32;379510;-80
2023/04/08 04:57:56;;;;;;;33.63;22.63;;;;;;;;;;4335343;32;319362;-79
2023/04/08 05:00:24;;;;;;;28.30;20.93;;;;;;;;;;4321753;32;318911;-80
2023/04/08 05:02:51;;;;;;;35.47;21.23;;;;;;;;;;4358305;32;318599;-79
2023/04/08 05:05:21;;;;;;;37.60;23.83;;;;;;;;;;4412413;32;319210;-80
2023/04/08 05:07:47;;;;;;;43.63;24.13;;;;;;;;;;4402713;32;319359;-80
2023/04/08 05:10:14;;;;;;;37.80;24.27;;;;;;;;;;4412348;32;331934;-79
2023/04/08 05:12:41;;;;;;;39.27;23.83;;;;;;;;;;4403519;32;319542;-78
2023/04/08 05:15:08;;;;;;;37.23;23.67;;;;;;;;;;4413607;32;319107;-79
2023/04/08 05:17:35;;;;;;;42.97;27.97;;;;;;;;;;4403645;32;319219;-79
2023/04/08 05:20:02;;;;;;;56.87;37.23;;;;;;;;;;4413734;32;319288;-81
2023/04/08 05:22:30;;;;;;;43.40;27.03;;;;;;;;;;4403759;32;318470;-80
2023/04/08 05:24:56;;;;;;;61.30;33.60;;;;;;;;;;4412984;32;318633;-80
2023/04/08 05:27:23;;;;;;;36.07;25.97;;;;;;;;;;4412593;32;318736;-79
2023/04/08 05:29:50;;;;;;;40.10;28.27;;;;;;;;;;4403810;32;319184;-78
2023/04/08 05:32:17;;;;;;;34.37;23.00;;;;;;;;;;4414526;32;318480;-79
2023/04/08 05:34:45;;;;;;;38.03;28.23;;;;;;;;;;4403885;32;319397;-77
2023/04/08 05:37:11;;;;;;;29.83;20.90;;;;;;;;;;4328804;32;319412;-78
2023/04/08 05:39:41;;;;;;;30.43;23.17;;;;;;;;;;4309869;32;319233;-79
2023/04/08 05:42:08;;;;;;;39.63;27.10;;;;;;;;;;4321490;32;319209;-79
2023/04/08 05:44:34;;;;;;;49.50;25.90;;;;;;;;;;4310642;32;319317;-80
2023/04/08 05:47:01;;;;;;;30.77;20.50;;;;;;;;;;4320197;32;319155;-80
2023/04/08 05:49:28;;;;;;;33.63;22.57;;;;;;;;;;4311482;32;319244;-79
2023/04/08 05:51:56;;;;;;;42.67;24.40;;;;;;;;;;4320736;32;319391;-80
2023/04/08 05:54:23;;;;;;;38.40;23.17;;;;;;;;;;4322662;32;319275;-78
2023/04/08 05:56:51;;;;;;;48.47;27.67;;;;;;;;;;4325244;32;319448;-79
2023/04/08 05:59:18;;;;;;;30.83;21.67;;;;;;;;;;4338906;32;319227;-78
2023/04/08 06:01:45;;;;;;;30.23;22.17;;;;;;;;;;4328774;32;319374;-78
2023/04/08 06:04:11;;;;;;;38.13;22.53;;;;;;;;;;4335462;32;319001;-77
2023/04/08 06:06:39;;;;;;;35.53;23.20;;;;;;;;;;4328352;32;343825;-79
2023/04/08 06:09:06;;;;;;;26.23;18.53;;;;;;;;;;4336087;32;319261;-80
2023/04/08 06:11:33;;;;;;;30.30;19.47;;;;;;;;;;4325744;32;319401;-80
2023/04/08 06:14:01;;;;;;;26.87;18.67;;;;;;;;;;4335961;32;318598;-78
2023/04/08 06:16:28;;;;;;;34.53;17.97;;;;;;;;;;4325515;32;338823;-80
2023/04/08 06:18:55;;;;;;;43.47;20.77;;;;;;;;;;4335512;32;317527;-79
2023/04/08 06:21:22;;;;;;;33.13;18.10;;;;;;;;;;4335152;32;319269;-79
2023/04/08 06:23:48;;;;;;;44.50;28.83;;;;;;;;;;4321666;32;318949;-78
2023/04/08 06:26:16;;;;;;;37.17;25.77;;;;;;;;;;4333279;32;318656;-79
2023/04/08 06:28:42;;;;;;;46.33;25.40;;;;;;;;;;4315314;32;318660;-78
2023/04/08 06:31:11;;;;;;;47.27;28.60;;;;;;;;;;4332260;32;348051;-78
2023/04/08 06:33:37;;;;;;;41.23;26.67;;;;;;;;;;4324125;32;319234;-77
2023/04/08 06:36:05;;;;;;;45.93;26.80;;;;;;;;;;4334531;32;319191;-79
2023/04/08 06:38:32;;;;;;;34.37;24.93;;;;;;;;;;4322457;32;319216;-77
2023/04/08 06:41:02;;;;;;;36.30;24.87;;;;;;;;;;4334240;32;318746;-78
2023/04/08 06:43:29;;;;;;;123.57;62.27;;;;;;;;;;4325356;32;319448;-79
2023/04/08 06:45:56;;;;;;;66.53;38.40;;;;;;;;;;4335000;32;321272;-78
2023/04/08 06:48:27;;;;;;;69.83;38.60;;;;;;;;;;4335531;32;319534;-77
2023/04/08 06:50:55;;;;;;;35.57;22.90;;;;;;;;;;4318801;32;422144;-76
2023/04/08 06:53:23;;;;;;;30.73;21.27;;;;;;;;;;4319696;33;318520;-79
2023/04/08 06:55:53;;;;;;;28.83;21.00;;;;;;;;;;4321445;32;319135;-78
2023/04/08 06:58:19;;;;;;;31.43;18.10;;;;;;;;;;4334773;32;319485;-78
2023/04/08 07:00:47;;;;;;;31.17;20.53;;;;;;;;;;4324140;32;330331;-82
2023/04/08 07:03:13;;;;;;;28.60;20.13;;;;;;;;;;4334316;32;318794;-79
2023/04/08 07:05:42;;;;;;;28.20;20.43;;;;;;;;;;4325868;32;318582;-78
2023/04/08 07:08:09;;;;;;;27.43;19.90;;;;;;;;;;4333835;32;319192;-79
2023/04/08 07:10:36;;;;;;;27.33;20.20;;;;;;;;;;4324245;32;319241;-79
2023/04/08 07:13:03;;;;;;;28.73;20.10;;;;;;;;;;4334005;32;319288;-79
2023/04/08 07:15:29;;;;;;;29.27;18.63;;;;;;;;;;4324589;32;319614;-77
2023/04/08 07:17:57;;;;;;;32.23;21.00;;;;;;;;;;4335510;32;318569;-78
2023/04/08 07:20:24;;;;;;;28.13;18.37;;;;;;;;;;4334973;32;319533;-78
2023/04/08 07:22:52;;;;;;;24.73;18.33;;;;;;;;;;4324760;32;319439;-78
2023/04/08 07:25:19;;;;;;;26.23;19.83;;;;;;;;;;4334809;32;320263;-77
2023/04/08 07:27:46;;;;;;;24.57;18.10;;;;;;;;;;4324135;32;349253;-77
2023/04/08 07:30:13;;;;;;;22.23;16.43;;;;;;;;;;4335002;32;318642;-78
2023/04/08 07:32:40;;;;;;;25.27;17.13;;;;;;;;;;4327161;32;319291;-77
2023/04/08 07:35:08;;;;;;;21.07;16.53;;;;;;;;;;4336428;32;325187;-77
2023/04/08 07:37:34;;;;;;;22.70;15.60;;;;;;;;;;4325411;32;346277;-78
2023/04/08 07:40:04;;;;;;;25.90;13.60;;;;;;;;;;4336370;32;352136;-78
2023/04/08 07:42:32;;;;;;;18.73;12.23;;;;;;;;;;4326959;32;318631;-78
2023/04/08 07:44:58;;;;;;;21.57;14.03;;;;;;;;;;4336218;32;318709;-77
2023/04/08 07:47:26;;;;;;;24.37;16.60;;;;;;;;;;4337805;32;318553;-76
2023/04/08 07:49:53;;;;;;;31.20;18.63;;;;;;;;;;4324811;32;345564;-77
2023/04/08 07:52:20;;;;;;;18.60;15.03;;;;;;;;;;4325225;32;319354;-79
2023/04/08 07:54:47;;;;;;;21.97;15.73;;;;;;;;;;4312743;32;319317;-77
2023/04/08 07:57:15;;;;;;;22.80;15.50;;;;;;;;;;4321360;32;318257;-78
2023/04/08 07:59:43;;;;;;;34.43;15.67;;;;;;;;;;4311130;32;318622;-76
2023/04/08 08:02:12;;;;;;;28.37;15.23;;;;;;;;;;4322363;32;319501;-78
2023/04/08 08:04:40;;;;;;;24.60;15.53;;;;;;;;;;4311326;32;319567;-78
2023/04/08 08:07:07;;;;;;;26.53;14.57;;;;;;;;;;4319853;32;318960;-77
2023/04/08 08:09:33;;;;;;;21.23;14.73;;;;;;;;;;4310043;32;319270;-77
2023/04/08 08:12:00;;;;;;;18.50;13.03;;;;;;;;;;4322102;32;318739;-78
2023/04/08 08:14:28;;;;;;;17.37;11.57;;;;;;;;;;4333059;32;319357;-78
2023/04/08 08:16:55;;;;;;;18.23;11.30;;;;;;;;;;4324170;32;422150;-77
2023/04/08 08:19:22;;;;;;;18.47;12.73;;;;;;;;;;4337104;32;318723;-77
2023/04/08 08:21:50;;;;;;;15.83;11.70;;;;;;;;;;4326901;32;319268;-78
2023/04/08 08:24:17;;;;;;;16.47;11.87;;;;;;;;;;4337254;32;319273;-78
2023/04/08 08:26:46;;;;;;;22.27;11.77;;;;;;;;;;4325886;32;319125;-77
2023/04/08 08:29:13;;;;;;;18.17;11.93;;;;;;;;;;4335529;32;318700;-78
2023/04/08 08:31:41;;;;;;;19.70;11.87;;;;;;;;;;4327060;32;319247;-77
2023/04/08 08:34:08;;;;;;;17.30;12.97;;;;;;;;;;4336525;32;318732;-79
2023/04/08 08:36:35;;;;;;;18.93;14.27;;;;;;;;;;4316416;32;318737;-79
2023/04/08 08:39:02;;;;;;;13.70;12.23;;;;;;;;;;4317146;32;318339;-78
2023/04/08 08:41:34;;;;;;;23.67;12.37;;;;;;;;;;4320512;32;318900;-77
2023/04/08 08:44:01;;;;;;;21.93;12.17;;;;;;;;;;4328507;32;341734;-79
2023/04/08 08:46:28;;;;;;;20.40;13.40;;;;;;;;;;4327488;32;319341;-79
2023/04/08 08:48:57;;;;;;;18.57;11.87;;;;;;;;;;4341069;32;319258;-79
2023/04/08 08:51:25;;;;;;;21.17;13.23;;;;;;;;;;4322467;32;328859;-79
2023/04/08 08:53:51;;;;;;;18.17;12.53;;;;;;;;;;4309890;32;319116;-77
2023/04/08 08:56:18;;;;;;;15.93;12.70;;;;;;;;;;4321365;32;319386;-78
2023/04/08 08:58:46;;;;;;;19.07;11.90;;;;;;;;;;4313889;32;319258;-77
2023/04/08 09:01:36;;;;;;;15.77;12.30;;;;;;;;;;4324071;32;319240;-78
2023/04/08 09:04:14;;;;;;;18.53;12.27;;;;;;;;;;4311200;32;419966;-79
2023/04/08 09:06:41;;;;;;;17.83;13.03;;;;;;;;;;4313745;32;319438;-78
2023/04/08 09:09:12;;;;;;;20.80;13.73;;;;;;;;;;4336668;32;319455;-77
2023/04/08 09:11:41;;;;;;;21.33;12.00;;;;;;;;;;4327507;32;319320;-81
2023/04/08 09:14:21;;;;;;;14.87;11.67;;;;;;;;;;4336834;32;319178;-80
2023/04/08 09:16:48;;;;;;;20.70;12.47;;;;;;;;;;4318921;32;318779;-80
2023/04/08 09:19:16;;;;;;;15.30;11.10;;;;;;;;;;4327965;32;318669;-76
2023/04/08 09:21:43;;;;;;;16.83;13.33;;;;;;;;;;4308727;32;318931;-75
2023/04/08 09:24:27;;;;;;;16.50;12.30;;;;;;;;;;4332467;32;318584;-78
2023/04/08 09:26:55;;;;;;;18.70;12.60;;;;;;;;;;4324634;32;418310;-79
2023/04/08 09:29:23;;;;;;;14.87;12.00;;;;;;;;;;4335607;32;349535;-77
2023/04/08 09:31:55;;;;;;;16.07;11.73;;;;;;;;;;4327243;32;319624;-78
2023/04/08 09:34:33;;;;;;;16.80;12.00;;;;;;;;;;4336280;32;319423;-76
2023/04/08 09:37:01;;;;;;;20.07;11.70;;;;;;;;;;4311105;32;420087;-77
2023/04/08 09:39:27;;;;;;;16.53;11.37;;;;;;;;;;4321583;32;319300;-78
2023/04/08 09:41:59;;;;;;;17.07;12.13;;;;;;;;;;4311077;32;416166;-80
2023/04/08 09:44:29;;;;;;;21.83;11.77;;;;;;;;;;4384257;32;319393;-79
2023/04/08 09:47:06;;;;;;;25.00;13.23;;;;;;;;;;4350825;32;420055;-80
2023/04/08 09:49:38;;;;;;;21.77;13.77;;;;;;;;;;4327719;32;319749;-80
2023/04/08 09:52:08;;;;;;;25.43;14.43;;;;;;;;;;4339084;32;319513;-82
2023/04/08 09:54:44;;;;;;;24.27;15.70;;;;;;;;;;4342350;32;319235;-81
2023/04/08 09:57:15;;;;;;;22.60;14.70;;;;;;;;;;4348301;32;356801;-79
2023/04/08 09:59:50;;;;;;;23.53;13.30;;;;;;;;;;4333834;32;319395;-80
2023/04/08 10:02:21;;;;;;;17.93;12.97;;;;;;;;;;4341601;32;319528;-79
2023/04/08 10:04:52;;;;;;;21.63;13.90;;;;;;;;;;4326875;32;319475;-80
2023/04/08 10:07:21;;;;;;;23.77;14.33;;;;;;;;;;4335393;32;319479;-80
2023/04/08 10:09:48;;;;;;;22.30;14.60;;;;;;;;;;4327646;32;319176;-79
2023/04/08 10:12:15;;;;;;;17.63;12.30;;;;;;;;;;4338922;32;319364;-79
2023/04/08 10:14:42;;;;;;;17.63;13.73;;;;;;;;;;4328786;32;318654;-78
2023/04/08 10:17:26;;;;;;;72.23;36.10;;;;;;;;;;4338871;32;319413;-78
2023/04/08 10:19:53;;;;;;;23.33;13.37;;;;;;;;;;4324921;32;373720;-79
2023/04/08 10:22:50;;;;;;;21.23;15.47;;;;;;;;;;4338032;32;317576;-79
2023/04/08 10:25:31;;;;;;;36.83;20.70;;;;;;;;;;4322286;32;421196;-81
2023/04/08 10:27:58;;;;;;;19.10;14.00;;;;;;;;;;4322848;32;421082;-79
2023/04/08 10:30:42;;;;;;;21.73;14.30;;;;;;;;;;4334577;32;319315;-78
2023/04/08 10:33:16;;;;;;;68.10;33.47;;;;;;;;;;4322960;32;418183;-78
2023/04/08 10:35:45;;;;;;;257.60;119.07;;;;;;;;;;4325618;32;319676;-78
2023/04/08 10:38:14;;;;;;;381.17;170.47;;;;;;;;;;4335025;32;320903;-82
2023/04/08 10:40:42;;;;;;;178.03;88.97;;;;;;;;;;4321753;32;321725;-83
2023/04/08 10:43:10;;;;;;;79.53;39.93;;;;;;;;;;4333408;32;319871;-77
2023/04/08 10:45:37;;;;;;;37.23;24.67;;;;;;;;;;4311140;32;351884;-77
2023/04/08 10:48:15;;;;;;;16.73;12.97;;;;;;;;;;4336599;32;318741;-78
2023/04/08 10:50:42;;;;;;;97.37;77.37;;;;;;;;;;4324088;32;334500;-81
2023/04/08 10:53:10;;;;;;;20.30;15.33;;;;;;;;;;4336930;32;319589;-85
2023/04/08 10:55:38;;;;;;;21.57;11.03;;;;;;;;;;4325652;32;319241;-78
2023/04/08 10:58:08;;;;;;;16.53;12.43;;;;;;;;;;4334694;32;318670;-78
2023/04/08 11:00:37;;;;;;;25.57;14.60;;;;;;;;;;4325077;32;319457;-79
2023/04/08 11:03:04;;;;;;;21.10;14.03;;;;;;;;;;4336238;32;318571;-85
2023/04/08 11:05:32;;;;;;;16.20;11.33;;;;;;;;;;4325165;32;319287;-79
2023/04/08 11:07:59;;;;;;;17.43;10.43;;;;;;;;;;4335011;32;319456;-82
2023/04/08 11:10:25;;;;;;;15.57;8.37;;;;;;;;;;4336979;32;318904;-81
2023/04/08 11:12:55;;;;;;;12.73;8.93;;;;;;;;;;4322935;32;318694;-78
2023/04/08 11:15:24;;;;;;;8.73;7.82;;;;;;;;;;4323250;32;318281;-81
2023/04/08 11:17:53;;;;;;;10.27;7.90;;;;;;;;;;4312676;32;316802;-81
2023/04/08 11:20:20;;;;;;;12.00;9.43;;;;;;;;;;4322934;32;318416;-81
2023/04/08 11:22:47;;;;;;;11.93;8.87;;;;;;;;;;4313227;32;317805;-81
2023/04/08 11:25:16;;;;;;;15.30;7.97;;;;;;;;;;4322778;32;332922;-80
2023/04/08 11:27:43;;;;;;;9.23;8.27;;;;;;;;;;4313161;32;318456;-79
2023/04/08 11:30:13;;;;;;;14.13;9.03;;;;;;;;;;4322356;32;317475;-79
2023/04/08 11:32:40;;;;;;;11.57;9.17;;;;;;;;;;4314207;32;318563;-80
2023/04/08 11:35:07;;;;;;;16.37;9.43;;;;;;;;;;4322686;32;317597;-79
2023/04/08 11:37:38;;;;;;;15.87;11.27;;;;;;;;;;4395300;32;323458;-79
2023/04/08 11:40:09;;;;;;;11.73;8.70;;;;;;;;;;4381147;32;319426;-81
2023/04/08 11:42:36;;;;;;;9.87;8.87;;;;;;;;;;4326800;32;318558;-80
2023/04/08 11:45:11;;;;;;;15.73;11.07;;;;;;;;;;4337722;32;317263;-81
2023/04/08 11:47:42;;;;;;;12.50;9.93;;;;;;;;;;4327734;32;319500;-82
2023/04/08 11:50:10;;;;;;;11.73;8.30;;;;;;;;;;4337217;32;318298;-83
2023/04/08 11:52:44;;;;;;;15.37;9.43;;;;;;;;;;4328035;32;318344;-81
2023/04/08 11:55:12;;;;;;;11.57;9.27;;;;;;;;;;4337589;32;318364;-79
2023/04/08 11:57:39;;;;;;;11.20;7.80;;;;;;;;;;4326597;32;317559;-78
2023/04/08 12:00:08;;;;;;;14.07;9.13;;;;;;;;;;4335772;32;318669;-80
2023/04/08 12:02:34;;;;;;;25.33;12.60;;;;;;;;;;4326138;32;317928;-79
2023/04/08 12:05:02;;;;;;;13.70;9.57;;;;;;;;;;4329375;32;319985;-78
2023/04/08 12:07:29;;;;;;;15.00;10.27;;;;;;;;;;4318039;32;318208;-79
2023/04/08 12:09:58;;;;;;;11.57;8.73;;;;;;;;;;4320660;32;319392;-81
2023/04/08 12:12:25;;;;;;;11.17;8.13;;;;;;;;;;4333484;32;317702;-80
2023/04/08 12:14:52;;;;;;;11.03;7.90;;;;;;;;;;4324753;32;318360;-80
2023/04/08 12:17:20;;;;;;;13.38;8.75;;;;;;;;;;4334773;32;318698;-80
2023/04/08 12:19:47;;;;;;;11.83;9.33;;;;;;;;;;4320522;32;318418;-80
2023/04/08 12:22:15;;;;;;;12.93;7.80;;;;;;;;;;4320368;32;318292;-81
2023/04/08 12:24:43;;;;;;;12.80;8.70;;;;;;;;;;4312108;32;317534;-78
2023/04/08 12:27:10;;;;;;;11.23;7.13;;;;;;;;;;4322193;32;317789;-80
2023/04/08 12:29:37;;;;;;;11.90;6.93;;;;;;;;;;4312545;32;318310;-81
2023/04/08 12:32:04;;;;;;;9.43;6.70;;;;;;;;;;4325332;32;317788;-81
2023/04/08 12:34:31;;;;;;;11.20;8.43;;;;;;;;;;4325522;32;382626;-80
2023/04/08 12:36:58;;;;;;;9.23;7.37;;;;;;;;;;4328769;32;318399;-79
2023/04/08 12:39:27;;;;;;;10.60;6.80;;;;;;;;;;4321288;32;317163;-81
2023/04/08 12:41:53;;;;;;;9.53;7.27;;;;;;;;;;4309206;32;418124;-81
2023/04/08 12:44:21;;;;;;;13.40;8.23;;;;;;;;;;4322401;32;316603;-80
2023/04/08 12:46:47;;;;;;;9.23;7.80;;;;;;;;;;4321332;32;317639;-79
2023/04/08 12:49:14;;;;;;;9.73;8.40;;;;;;;;;;4336199;32;317279;-82
2023/04/08 12:51:41;;;;;;;10.67;7.87;;;;;;;;;;4325839;32;351988;-80
2023/04/08 12:54:07;;;;;;;11.33;7.67;;;;;;;;;;4336850;32;318439;-82
2023/04/08 12:56:36;;;;;;;12.50;8.80;;;;;;;;;;4326041;32;317549;-79
2023/04/08 12:59:02;;;;;;;10.45;8.63;;;;;;;;;;4337315;32;318000;-79
2023/04/08 13:01:30;;;;;;;12.47;8.63;;;;;;;;;;4323103;32;317838;-78
2023/04/08 13:03:56;;;;;;;14.55;8.85;;;;;;;;;;4337347;32;317855;-78
2023/04/08 13:06:23;;;;;;;11.70;7.93;;;;;;;;;;4335838;32;317633;-79
2023/04/08 13:08:50;;;;;;;14.77;10.30;;;;;;;;;;4324805;32;317946;-80
2023/04/08 13:11:17;;;;;;;10.00;8.30;;;;;;;;;;4334916;32;318649;-79
2023/04/08 13:13:46;;;;;;;15.48;8.50;;;;;;;;;;4325768;32;317623;-81
2023/04/08 13:16:14;;;;;;;10.07;8.57;;;;;;;;;;4336512;32;318202;-80
2023/04/08 13:18:42;;;;;;;10.75;8.40;;;;;;;;;;4326928;32;317634;-80
2023/04/08 13:21:09;;;;;;;11.52;8.13;;;;;;;;;;4335146;32;318591;-81
2023/04/08 13:23:36;;;;;;;17.87;11.90;;;;;;;;;;4317771;32;348708;-79
2023/04/08 13:26:03;;;;;;;14.10;9.67;;;;;;;;;;4335643;32;318899;-81
2023/04/08 13:28:29;;;;;;;10.80;8.67;;;;;;;;;;4325549;32;317870;-80
2023/04/08 13:30:58;;;;;;;9.65;8.40;;;;;;;;;;4336250;32;318103;-81
2023/04/08 13:33:26;;;;;;;12.90;7.17;;;;;;;;;;4326746;32;316918;-80
2023/04/08 13:35:53;;;;;;;11.27;8.07;;;;;;;;;;4317087;32;317496;-80
2023/04/08 13:38:20;;;;;;;12.80;10.32;;;;;;;;;;4336409;32;318277;-81
2023/04/08 13:40:47;;;;;;;15.10;8.30;;;;;;;;;;4325956;32;319259;-80
2023/04/08 13:43:13;;;;;;;9.37;7.47;;;;;;;;;;4336378;32;317562;-80
2023/04/08 13:45:40;;;;;;;14.43;6.85;;;;;;;;;;4325701;32;317351;-81
2023/04/08 13:48:12;;;;;;;9.00;6.95;;;;;;;;;;4336871;32;318567;-80
2023/04/08 13:50:40;;;;;;;7.67;5.80;;;;;;;;;;4326958;32;356081;-81
2023/04/08 13:53:07;;;;;;;8.10;6.53;;;;;;;;;;4348846;32;338951;-80
2023/04/08 13:55:35;;;;;;;9.67;6.93;;;;;;;;;;4342947;32;317235;-81
2023/04/08 13:58:02;;;;;;;9.10;7.00;;;;;;;;;;4347782;32;333228;-81
2023/04/08 14:00:30;;;;;;;13.50;7.43;;;;;;;;;;4339458;32;316298;-83
2023/04/08 14:02:56;;;;;;;13.53;8.93;;;;;;;;;;4344041;32;317539;-80
2023/04/08 14:05:24;;;;;;;22.02;9.27;;;;;;;;;;4335354;32;317669;-79
2023/04/08 14:07:53;;;;;;;15.80;10.50;;;;;;;;;;4325867;32;318112;-80
2023/04/08 14:10:21;;;;;;;12.43;9.67;;;;;;;;;;4331996;32;318529;-81
2023/04/08 14:12:47;;;;;;;16.47;10.03;;;;;;;;;;4318375;32;318230;-80
2023/04/08 14:15:14;;;;;;;17.37;10.93;;;;;;;;;;4324245;32;319156;-80